sensor_id;sensor_type;location;lat;lon;timestamp;pressure;altitude;pressure_sealevel;temperature;humidity
9839;BME280;4958;48.150;11.506;2023-02-19T00:01:44;96047.16;;;12.79;60.48
9839;BME280;4958;48.150;11.506;2023-02-19T00:04:13;96050.81;;;12.85;60.17
9839;BME280;4958;48.150;11.506;2023-02-19T00:06:40;96046.00;;;12.82;60.60
9839;BME280;4958;48.150;11.506;2023-02-19T00:09:08;96043.94;;;12.77;60.84
9839;BME280;4958;48.150;11.506;2023-02-19T00:11:37;96045.72;;;12.76;60.64
9839;BME280;4958;48.150;11.506;2023-02-19T00:14:03;96038.97;;;12.75;60.80
9839;BME280;4958;48.150;11.506;2023-02-19T00:16:32;96049.75;;;12.79;60.58
9839;BME280;4958;48.150;11.506;2023-02-19T00:19:00;96036.47;;;12.82;60.65
9839;BME280;4958;48.150;11.506;2023-02-19T00:21:28;96031.75;;;12.86;60.44
9839;BME280;4958;48.150;11.506;2023-02-19T00:23:56;96033.53;;;12.85;60.75
9839;BME280;4958;48.150;11.506;2023-02-19T00:26:23;96027.56;;;12.85;60.40
9839;BME280;4958;48.150;11.506;2023-02-19T00:28:54;96019.00;;;12.84;60.64
9839;BME280;4958;48.150;11.506;2023-02-19T00:31:23;96026.22;;;12.89;60.48
9839;BME280;4958;48.150;11.506;2023-02-19T00:33:51;96025.78;;;12.85;60.65
9839;BME280;4958;48.150;11.506;2023-02-19T00:36:18;96022.13;;;12.79;60.57
9839;BME280;4958;48.150;11.506;2023-02-19T00:38:45;96020.41;;;12.72;61.20
9839;BME280;4958;48.150;11.506;2023-02-19T00:41:13;96023.38;;;12.69;60.87
9839;BME280;4958;48.150;11.506;2023-02-19T00:43:47;96023.38;;;12.69;61.21
9839;BME280;4958;48.150;11.506;2023-02-19T00:46:15;96014.22;;;12.66;61.38
9839;BME280;4958;48.150;11.506;2023-02-19T00:48:42;96017.31;;;12.62;61.26
9839;BME280;4958;48.150;11.506;2023-02-19T00:51:09;96015.25;;;12.72;61.17
9839;BME280;4958;48.150;11.506;2023-02-19T00:53:36;96012.50;;;12.73;60.87
9839;BME280;4958;48.150;11.506;2023-02-19T00:56:03;96014.44;;;12.71;60.85
9839;BME280;4958;48.150;11.506;2023-02-19T00:58:29;96004.75;;;12.73;61.08
9839;BME280;4958;48.150;11.506;2023-02-19T01:00:56;96001.53;;;12.71;61.04
9839;BME280;4958;48.150;11.506;2023-02-19T01:03:24;96000.50;;;12.66;61.31
9839;BME280;4958;48.150;11.506;2023-02-19T01:05:51;96010.63;;;12.53;61.36
9839;BME280;4958;48.150;11.506;2023-02-19T01:08:18;95998.59;;;12.60;61.34
9839;BME280;4958;48.150;11.506;2023-02-19T01:10:45;96003.16;;;12.58;61.76
9839;BME280;4958;48.150;11.506;2023-02-19T01:13:12;95997.47;;;12.62;61.57
9839;BME280;4958;48.150;11.506;2023-02-19T01:15:38;95993.78;;;12.71;61.27
9839;BME280;4958;48.150;11.506;2023-02-19T01:18:05;95988.38;;;12.66;61.26
9839;BME280;4958;48.150;11.506;2023-02-19T01:20:33;95982.31;;;12.59;61.93
9839;BME280;4958;48.150;11.506;2023-02-19T01:22:59;95987.94;;;12.63;61.90
9839;BME280;4958;48.150;11.506;2023-02-19T01:25:26;95979.91;;;12.58;61.94
9839;BME280;4958;48.150;11.506;2023-02-19T01:27:52;95988.09;;;12.61;61.56
9839;BME280;4958;48.150;11.506;2023-02-19T01:30:19;95979.91;;;12.58;61.33
9839;BME280;4958;48.150;11.506;2023-02-19T01:32:45;95988.09;;;12.61;61.66
9839;BME280;4958;48.150;11.506;2023-02-19T01:35:11;95980.53;;;12.60;61.49
9839;BME280;4958;48.150;11.506;2023-02-19T01:37:39;95975.53;;;12.58;61.85
9839;BME280;4958;48.150;11.506;2023-02-19T01:40:06;95989.34;;;12.65;61.67
9839;BME280;4958;48.150;11.506;2023-02-19T01:42:33;95974.91;;;12.56;62.07
9839;BME280;4958;48.150;11.506;2023-02-19T01:45:24;95973.47;;;12.54;62.31
9839;BME280;4958;48.150;11.506;2023-02-19T01:47:55;95971.88;;;12.53;61.90
9839;BME280;4958;48.150;11.506;2023-02-19T01:50:27;95974.91;;;12.56;62.16
9839;BME280;4958;48.150;11.506;2023-02-19T01:52:56;95967.72;;;12.66;61.90
9839;BME280;4958;48.150;11.506;2023-02-19T01:55:23;95960.94;;;12.65;62.07
9839;BME280;4958;48.150;11.506;2023-02-19T01:57:52;95956.41;;;12.67;62.12
9839;BME280;4958;48.150;11.506;2023-02-19T02:00:20;95959.69;;;12.61;62.02
9839;BME280;4958;48.150;11.506;2023-02-19T02:02:51;95962.53;;;12.66;62.05
9839;BME280;4958;48.150;11.506;2023-02-19T02:05:27;95963.34;;;12.52;62.84
9839;BME280;4958;48.150;11.506;2023-02-19T02:08:01;95967.44;;;12.47;64.50
9839;BME280;4958;48.150;11.506;2023-02-19T02:10:45;95968.84;;;12.34;65.75
9839;BME280;4958;48.150;11.506;2023-02-19T02:13:11;95959.59;;;12.25;67.07
9839;BME280;4958;48.150;11.506;2023-02-19T02:15:43;95954.00;;;12.22;68.53
9839;BME280;4958;48.150;11.506;2023-02-19T02:18:19;95961.84;;;12.28;68.95
9839;BME280;4958;48.150;11.506;2023-02-19T02:21:07;95965.22;;;12.29;69.59
9839;BME280;4958;48.150;11.506;2023-02-19T02:23:50;95956.63;;;12.14;71.56
9839;BME280;4958;48.150;11.506;2023-02-19T02:26:34;95957.63;;;12.13;72.89
9839;BME280;4958;48.150;11.506;2023-02-19T02:29:24;95942.47;;;11.95;73.36
9839;BME280;4958;48.150;11.506;2023-02-19T02:32:02;95944.16;;;11.88;74.12
9839;BME280;4958;48.150;11.506;2023-02-19T02:34:37;95935.63;;;11.87;74.20
9839;BME280;4958;48.150;11.506;2023-02-19T02:37:07;95939.97;;;11.87;74.64
9839;BME280;4958;48.150;11.506;2023-02-19T02:39:35;95939.06;;;11.80;74.81
9839;BME280;4958;48.150;11.506;2023-02-19T02:42:03;95945.91;;;11.72;75.50
9839;BME280;4958;48.150;11.506;2023-02-19T02:44:47;95945.59;;;11.67;76.51
9839;BME280;4958;48.150;11.506;2023-02-19T02:47:29;95945.47;;;11.61;78.91
9839;BME280;4958;48.150;11.506;2023-02-19T02:50:12;95930.09;;;11.53;79.87
9839;BME280;4958;48.150;11.506;2023-02-19T02:52:42;95936.28;;;11.43;81.51
9839;BME280;4958;48.150;11.506;2023-02-19T02:55:29;95922.41;;;11.45;81.46
9839;BME280;4958;48.150;11.506;2023-02-19T02:57:58;95921.44;;;11.23;84.05
9839;BME280;4958;48.150;11.506;2023-02-19T03:00:26;95916.63;;;11.20;84.36
9839;BME280;4958;48.150;11.506;2023-02-19T03:03:16;95904.16;;;11.08;85.25
9839;BME280;4958;48.150;11.506;2023-02-19T03:05:48;95911.47;;;10.97;86.16
9839;BME280;4958;48.150;11.506;2023-02-19T03:08:22;95900.31;;;11.04;87.15
9839;BME280;4958;48.150;11.506;2023-02-19T03:10:52;95909.94;;;11.11;85.57
9839;BME280;4958;48.150;11.506;2023-02-19T03:13:24;95900.47;;;11.03;86.91
9839;BME280;4958;48.150;11.506;2023-02-19T03:16:14;95910.50;;;10.98;87.30
9839;BME280;4958;48.150;11.506;2023-02-19T03:19:03;95908.28;;;10.95;87.70
9839;BME280;4958;48.150;11.506;2023-02-19T03:21:46;95907.69;;;10.85;87.98
9839;BME280;4958;48.150;11.506;2023-02-19T03:24:17;95894.16;;;10.83;88.16
9839;BME280;4958;48.150;11.506;2023-02-19T03:27:04;95912.69;;;10.78;88.16
9839;BME280;4958;48.150;11.506;2023-02-19T03:29:34;95911.91;;;10.78;88.45
9839;BME280;4958;48.150;11.506;2023-02-19T03:32:06;95906.97;;;10.68;89.28
9839;BME280;4958;48.150;11.506;2023-02-19T03:34:37;95905.97;;;10.77;88.74
9839;BME280;4958;48.150;11.506;2023-02-19T03:37:10;95907.22;;;10.81;89.12
9839;BME280;4958;48.150;11.506;2023-02-19T03:39:38;95904.56;;;10.66;89.56
9839;BME280;4958;48.150;11.506;2023-02-19T03:42:16;95905.97;;;10.77;89.81
9839;BME280;4958;48.150;11.506;2023-02-19T03:44:49;95910.47;;;10.75;89.59
9839;BME280;4958;48.150;11.506;2023-02-19T03:47:22;95905.03;;;10.70;91.48
9839;BME280;4958;48.150;11.506;2023-02-19T03:49:55;95901.97;;;10.75;90.72
9839;BME280;4958;48.150;11.506;2023-02-19T03:52:32;95896.38;;;10.63;90.78
9839;BME280;4958;48.150;11.506;2023-02-19T03:55:04;95900.78;;;10.54;90.48
9839;BME280;4958;48.150;11.506;2023-02-19T03:57:36;95898.53;;;10.51;91.96
9839;BME280;4958;48.150;11.506;2023-02-19T04:00:08;95902.09;;;10.42;91.17
9839;BME280;4958;48.150;11.506;2023-02-19T04:02:40;95899.25;;;10.29;91.55
9839;BME280;4958;48.150;11.506;2023-02-19T04:05:13;95910.84;;;10.33;93.19
9839;BME280;4958;48.150;11.506;2023-02-19T04:07:44;95887.53;;;10.26;93.22
9839;BME280;4958;48.150;11.506;2023-02-19T04:10:11;95902.13;;;10.34;93.52
9839;BME280;4958;48.150;11.506;2023-02-19T04:12:41;95884.94;;;10.26;92.72
9839;BME280;4958;48.150;11.506;2023-02-19T04:15:12;95891.38;;;10.30;92.66
9839;BME280;4958;48.150;11.506;2023-02-19T04:17:43;95870.94;;;10.29;92.24
9839;BME280;4958;48.150;11.506;2023-02-19T04:20:14;95864.69;;;10.23;92.68
9839;BME280;4958;48.150;11.506;2023-02-19T04:22:42;95875.66;;;10.09;93.64
9839;BME280;4958;48.150;11.506;2023-02-19T04:25:09;95869.84;;;10.15;93.53
9839;BME280;4958;48.150;11.506;2023-02-19T04:27:36;95875.66;;;10.01;92.28
9839;BME280;4958;48.150;11.506;2023-02-19T04:30:04;95892.88;;;10.09;93.27
9839;BME280;4958;48.150;11.506;2023-02-19T04:32:31;95881.47;;;10.19;93.08
9839;BME280;4958;48.150;11.506;2023-02-19T04:34:57;95886.38;;;10.29;91.64
9839;BME280;4958;48.150;11.506;2023-02-19T04:37:25;95875.13;;;10.30;91.84
9839;BME280;4958;48.150;11.506;2023-02-19T04:39:51;95897.81;;;10.26;91.32
9839;BME280;4958;48.150;11.506;2023-02-19T04:42:18;95897.97;;;10.25;91.21
9839;BME280;4958;48.150;11.506;2023-02-19T04:44:44;95907.47;;;10.24;90.83
9839;BME280;4958;48.150;11.506;2023-02-19T04:47:11;95902.81;;;10.12;91.77
9839;BME280;4958;48.150;11.506;2023-02-19T04:49:37;95898.47;;;10.20;90.72
9839;BME280;4958;48.150;11.506;2023-02-19T04:52:03;95898.47;;;10.20;90.36
9839;BME280;4958;48.150;11.506;2023-02-19T04:54:31;95912.94;;;10.21;89.83
9839;BME280;4958;48.150;11.506;2023-02-19T04:56:58;95900.72;;;10.15;89.72
9839;BME280;4958;48.150;11.506;2023-02-19T04:59:24;95893.00;;;10.15;89.89
9839;BME280;4958;48.150;11.506;2023-02-19T05:01:50;95921.16;;;10.17;89.43
9839;BME280;4958;48.150;11.506;2023-02-19T05:04:17;95906.53;;;10.17;88.72
9839;BME280;4958;48.150;11.506;2023-02-19T05:06:43;95910.03;;;10.24;88.48
9839;BME280;4958;48.150;11.506;2023-02-19T05:09:10;95896.22;;;10.25;88.65
9839;BME280;4958;48.150;11.506;2023-02-19T05:11:37;95907.78;;;10.21;88.32
9839;BME280;4958;48.150;11.506;2023-02-19T05:14:04;95904.63;;;10.19;88.72
9839;BME280;4958;48.150;11.506;2023-02-19T05:16:30;95909.91;;;10.18;88.63
9839;BME280;4958;48.150;11.506;2023-02-19T05:18:57;95900.72;;;10.23;88.58
9839;BME280;4958;48.150;11.506;2023-02-19T05:21:24;95900.25;;;10.12;88.17
9839;BME280;4958;48.150;11.506;2023-02-19T05:23:50;95912.34;;;10.19;87.68
9839;BME280;4958;48.150;11.506;2023-02-19T05:26:19;95916.78;;;10.25;87.12
9839;BME280;4958;48.150;11.506;2023-02-19T05:28:49;95921.13;;;10.33;86.78
9839;BME280;4958;48.150;11.506;2023-02-19T05:31:16;95909.06;;;10.33;86.50
9839;BME280;4958;48.150;11.506;2023-02-19T05:33:42;95920.16;;;10.34;86.09
9839;BME280;4958;48.150;11.506;2023-02-19T05:36:12;95918.00;;;10.46;86.21
9839;BME280;4958;48.150;11.506;2023-02-19T05:38:39;95914.97;;;10.42;85.78
9839;BME280;4958;48.150;11.506;2023-02-19T05:41:08;95932.81;;;10.44;85.10
9839;BME280;4958;48.150;11.506;2023-02-19T05:43:34;95922.34;;;10.45;84.88
9839;BME280;4958;48.150;11.506;2023-02-19T05:46:02;95920.41;;;10.47;84.57
9839;BME280;4958;48.150;11.506;2023-02-19T05:48:28;95939.44;;;10.38;84.69
9839;BME280;4958;48.150;11.506;2023-02-19T05:51:00;95935.06;;;10.47;84.58
9839;BME280;4958;48.150;11.506;2023-02-19T05:53:26;95946.78;;;10.57;83.92
9839;BME280;4958;48.150;11.506;2023-02-19T05:55:53;95941.44;;;10.59;83.36
9839;BME280;4958;48.150;11.506;2023-02-19T05:58:19;95951.56;;;10.68;82.95
9839;BME280;4958;48.150;11.506;2023-02-19T06:00:46;95949.16;;;10.67;82.37
9839;BME280;4958;48.150;11.506;2023-02-19T06:03:13;95943.03;;;10.68;82.13
9839;BME280;4958;48.150;11.506;2023-02-19T06:05:40;95939.34;;;10.62;82.45
9839;BME280;4958;48.150;11.506;2023-02-19T06:08:06;95945.75;;;10.66;81.91
9839;BME280;4958;48.150;11.506;2023-02-19T06:10:33;95954.69;;;10.56;82.56
9839;BME280;4958;48.150;11.506;2023-02-19T06:13:00;95936.94;;;10.61;81.88
9839;BME280;4958;48.150;11.506;2023-02-19T06:15:28;95945.34;;;10.47;82.49
9839;BME280;4958;48.150;11.506;2023-02-19T06:17:55;95944.69;;;10.53;82.42
9839;BME280;4958;48.150;11.506;2023-02-19T06:20:22;95948.09;;;10.53;82.67
9839;BME280;4958;48.150;11.506;2023-02-19T06:22:49;95950.19;;;10.50;82.64
9839;BME280;4958;48.150;11.506;2023-02-19T06:25:16;95954.38;;;10.51;82.95
9839;BME280;4958;48.150;11.506;2023-02-19T06:27:42;95965.78;;;10.48;82.79
9839;BME280;4958;48.150;11.506;2023-02-19T06:30:10;95957.56;;;10.53;82.43
9839;BME280;4958;48.150;11.506;2023-02-19T06:32:37;95969.66;;;10.52;82.03
9839;BME280;4958;48.150;11.506;2023-02-19T06:35:04;95962.09;;;10.43;82.41
9839;BME280;4958;48.150;11.506;2023-02-19T06:37:32;95978.00;;;10.54;81.61
9839;BME280;4958;48.150;11.506;2023-02-19T06:39:58;95970.44;;;10.53;81.94
9839;BME280;4958;48.150;11.506;2023-02-19T06:42:24;95974.63;;;10.54;81.70
9839;BME280;4958;48.150;11.506;2023-02-19T06:44:51;95986.81;;;10.60;81.90
9839;BME280;4958;48.150;11.506;2023-02-19T06:47:39;95980.06;;;10.59;81.72
9839;BME280;4958;48.150;11.506;2023-02-19T06:50:05;95985.66;;;10.70;81.56
9839;BME280;4958;48.150;11.506;2023-02-19T06:52:33;95989.06;;;10.63;81.22
9839;BME280;4958;48.150;11.506;2023-02-19T06:54:59;95991.31;;;10.66;81.53
9839;BME280;4958;48.150;11.506;2023-02-19T06:57:26;95989.22;;;10.61;81.30
9839;BME280;4958;48.150;11.506;2023-02-19T06:59:52;95991.97;;;10.60;81.51
9839;BME280;4958;48.150;11.506;2023-02-19T07:02:19;96000.97;;;10.72;81.35
9839;BME280;4958;48.150;11.506;2023-02-19T07:04:45;96012.53;;;10.76;80.96
9839;BME280;4958;48.150;11.506;2023-02-19T07:07:11;96012.53;;;10.76;80.66
9839;BME280;4958;48.150;11.506;2023-02-19T07:09:39;96019.75;;;10.81;80.43
9839;BME280;4958;48.150;11.506;2023-02-19T07:12:06;96019.75;;;10.81;80.53
9839;BME280;4958;48.150;11.506;2023-02-19T07:14:32;96023.94;;;10.82;80.25
9839;BME280;4958;48.150;11.506;2023-02-19T07:16:59;96027.13;;;10.84;80.53
9839;BME280;4958;48.150;11.506;2023-02-19T07:19:25;96033.56;;;10.88;81.09
9839;BME280;4958;48.150;11.506;2023-02-19T07:21:52;96036.31;;;10.86;80.82
9839;BME280;4958;48.150;11.506;2023-02-19T07:24:18;96039.69;;;10.87;80.73
9839;BME280;4958;48.150;11.506;2023-02-19T07:26:47;96033.41;;;10.89;81.12
9839;BME280;4958;48.150;11.506;2023-02-19T07:29:13;96037.69;;;10.97;81.31
9839;BME280;4958;48.150;11.506;2023-02-19T07:31:39;96046.13;;;10.91;80.89
9839;BME280;4958;48.150;11.506;2023-02-19T07:34:06;96046.78;;;10.85;81.62
9839;BME280;4958;48.150;11.506;2023-02-19T07:36:32;96056.84;;;11.02;80.73
9839;BME280;4958;48.150;11.506;2023-02-19T07:38:59;96049.91;;;11.11;84.71
9839;BME280;4958;48.150;11.506;2023-02-19T07:41:26;96051.88;;;11.01;81.81
9839;BME280;4958;48.150;11.506;2023-02-19T07:43:54;96053.34;;;10.95;82.20
9839;BME280;4958;48.150;11.506;2023-02-19T07:46:21;96062.94;;;11.10;81.24
9839;BME280;4958;48.150;11.506;2023-02-19T07:48:47;96060.22;;;11.03;81.38
9839;BME280;4958;48.150;11.506;2023-02-19T07:51:16;96065.06;;;11.06;81.14
9839;BME280;4958;48.150;11.506;2023-02-19T07:53:43;96075.75;;;10.95;81.51
9839;BME280;4958;48.150;11.506;2023-02-19T07:56:11;96081.50;;;11.05;81.55
9839;BME280;4958;48.150;11.506;2023-02-19T07:58:38;96080.19;;;11.09;80.75
9839;BME280;4958;48.150;11.506;2023-02-19T08:01:08;96087.13;;;11.00;81.48
9839;BME280;4958;48.150;11.506;2023-02-19T08:03:35;96085.03;;;11.04;81.16
9839;BME280;4958;48.150;11.506;2023-02-19T08:06:00;96093.25;;;11.07;81.25
9839;BME280;4958;48.150;11.506;2023-02-19T08:08:27;96094.69;;;11.10;81.08
9839;BME280;4958;48.150;11.506;2023-02-19T08:10:53;96094.53;;;11.03;81.42
9839;BME280;4958;48.150;11.506;2023-02-19T08:13:37;96097.25;;;11.10;81.15
9839;BME280;4958;48.150;11.506;2023-02-19T08:16:12;96094.22;;;11.06;81.36
9839;BME280;4958;48.150;11.506;2023-02-19T08:18:40;96105.00;;;11.10;81.06
9839;BME280;4958;48.150;11.506;2023-02-19T08:21:06;96110.78;;;11.12;80.97
9839;BME280;4958;48.150;11.506;2023-02-19T08:23:33;96104.94;;;11.18;81.00
9839;BME280;4958;48.150;11.506;2023-02-19T08:26:00;96109.34;;;11.10;80.31
9839;BME280;4958;48.150;11.506;2023-02-19T08:28:27;96121.22;;;11.19;80.31
9839;BME280;4958;48.150;11.506;2023-02-19T08:30:58;96112.31;;;11.29;79.97
9839;BME280;4958;48.150;11.506;2023-02-19T08:33:27;96117.81;;;11.18;78.88
9839;BME280;4958;48.150;11.506;2023-02-19T08:35:54;96128.50;;;11.15;79.36
9839;BME280;4958;48.150;11.506;2023-02-19T08:38:21;96123.34;;;11.15;78.95
9839;BME280;4958;48.150;11.506;2023-02-19T08:40:47;96126.25;;;11.12;78.74
9839;BME280;4958;48.150;11.506;2023-02-19T08:43:15;96132.81;;;11.23;78.58
9839;BME280;4958;48.150;11.506;2023-02-19T08:45:44;96133.41;;;11.33;78.02
9839;BME280;4958;48.150;11.506;2023-02-19T08:48:11;96133.06;;;11.36;77.59
9839;BME280;4958;48.150;11.506;2023-02-19T08:50:39;96139.50;;;11.40;77.53
9839;BME280;4958;48.150;11.506;2023-02-19T08:53:06;96139.97;;;11.43;77.43
9839;BME280;4958;48.150;11.506;2023-02-19T08:55:33;96145.47;;;11.40;78.17
9839;BME280;4958;48.150;11.506;2023-02-19T08:58:01;96149.34;;;11.36;78.26
9839;BME280;4958;48.150;11.506;2023-02-19T09:00:28;96161.13;;;11.31;78.48
9839;BME280;4958;48.150;11.506;2023-02-19T09:02:56;96143.44;;;11.20;77.77
9839;BME280;4958;48.150;11.506;2023-02-19T09:05:23;96163.25;;;11.19;78.42
9839;BME280;4958;48.150;11.506;2023-02-19T09:07:50;96158.44;;;11.16;77.08
9839;BME280;4958;48.150;11.506;2023-02-19T09:10:17;96157.00;;;11.14;76.29
9839;BME280;4958;48.150;11.506;2023-02-19T09:12:43;96179.72;;;11.10;76.17
9839;BME280;4958;48.150;11.506;2023-02-19T09:15:11;96177.16;;;11.02;75.64
9839;BME280;4958;48.150;11.506;2023-02-19T09:17:37;96162.38;;;10.96;74.72
9839;BME280;4958;48.150;11.506;2023-02-19T09:20:04;96179.59;;;10.95;73.76
9839;BME280;4958;48.150;11.506;2023-02-19T09:22:30;96180.41;;;10.88;74.29
9839;BME280;4958;48.150;11.506;2023-02-19T09:25:01;96175.88;;;10.98;78.21
9839;BME280;4958;48.150;11.506;2023-02-19T09:27:28;96172.22;;;11.39;82.74
9839;BME280;4958;48.150;11.506;2023-02-19T09:29:56;96175.81;;;11.69;76.37
9839;BME280;4958;48.150;11.506;2023-02-19T09:32:23;96177.13;;;11.96;75.94
9839;BME280;4958;48.150;11.506;2023-02-19T09:34:51;96165.84;;;12.20;77.95
9839;BME280;4958;48.150;11.506;2023-02-19T09:37:17;96172.88;;;12.12;72.13
9839;BME280;4958;48.150;11.506;2023-02-19T09:39:44;96189.41;;;11.94;67.91
9839;BME280;4958;48.150;11.506;2023-02-19T09:42:15;96193.09;;;11.61;66.95
9839;BME280;4958;48.150;11.506;2023-02-19T09:44:46;96197.03;;;11.40;66.56
9839;BME280;4958;48.150;11.506;2023-02-19T09:47:16;96205.63;;;11.25;66.87
9839;BME280;4958;48.150;11.506;2023-02-19T09:49:45;96201.47;;;11.07;67.23
9839;BME280;4958;48.150;11.506;2023-02-19T09:52:18;96192.63;;;11.02;67.85
9839;BME280;4958;48.150;11.506;2023-02-19T09:54:49;96193.28;;;10.96;67.40
9839;BME280;4958;48.150;11.506;2023-02-19T09:57:23;96183.16;;;10.94;66.22
9839;BME280;4958;48.150;11.506;2023-02-19T09:59:52;96204.22;;;10.98;66.49
9839;BME280;4958;48.150;11.506;2023-02-19T10:02:25;96197.44;;;10.97;65.77
9839;BME280;4958;48.150;11.506;2023-02-19T10:04:55;96207.28;;;11.10;65.48
9839;BME280;4958;48.150;11.506;2023-02-19T10:07:24;96196.97;;;11.10;65.31
9839;BME280;4958;48.150;11.506;2023-02-19T10:09:53;96194.75;;;11.54;64.10
9839;BME280;4958;48.150;11.506;2023-02-19T10:12:26;96177.22;;;12.11;62.31
9839;BME280;4958;48.150;11.506;2023-02-19T10:14:56;96187.34;;;12.81;60.50
9839;BME280;4958;48.150;11.506;2023-02-19T10:17:28;96176.66;;;13.13;60.00
9839;BME280;4958;48.150;11.506;2023-02-19T10:19:56;96194.25;;;13.47;56.29
9839;BME280;4958;48.150;11.506;2023-02-19T10:22:23;96178.84;;;13.39;54.12
9839;BME280;4958;48.150;11.506;2023-02-19T10:24:52;96190.00;;;13.55;55.82
9839;BME280;4958;48.150;11.506;2023-02-19T10:27:20;96206.03;;;13.79;53.60
9839;BME280;4958;48.150;11.506;2023-02-19T10:29:48;96202.44;;;13.95;52.23
9839;BME280;4958;48.150;11.506;2023-02-19T10:32:18;96203.63;;;13.78;52.03
9839;BME280;4958;48.150;11.506;2023-02-19T10:34:48;96194.47;;;13.97;52.05
9839;BME280;4958;48.150;11.506;2023-02-19T10:37:32;96200.00;;;14.30;51.17
9839;BME280;4958;48.150;11.506;2023-02-19T10:39:59;96207.03;;;14.36;51.15
9839;BME280;4958;48.150;11.506;2023-02-19T10:42:26;96178.72;;;14.13;51.78
9839;BME280;4958;48.150;11.506;2023-02-19T10:44:57;96198.84;;;14.32;51.80
9839;BME280;4958;48.150;11.506;2023-02-19T10:47:33;96190.75;;;14.63;50.92
9839;BME280;4958;48.150;11.506;2023-02-19T10:50:00;96201.75;;;14.65;49.46
9839;BME280;4958;48.150;11.506;2023-02-19T10:52:27;96182.41;;;14.61;49.96
9839;BME280;4958;48.150;11.506;2023-02-19T10:54:57;96188.50;;;14.54;50.07
9839;BME280;4958;48.150;11.506;2023-02-19T10:57:38;96173.22;;;14.59;49.44
9839;BME280;4958;48.150;11.506;2023-02-19T11:00:20;96174.94;;;14.51;49.30
9839;BME280;4958;48.150;11.506;2023-02-19T11:02:48;96173.22;;;14.59;48.67
9839;BME280;4958;48.150;11.506;2023-02-19T11:05:31;96179.44;;;14.43;49.22
9839;BME280;4958;48.150;11.506;2023-02-19T11:07:59;96186.78;;;14.03;49.83
9839;BME280;4958;48.150;11.506;2023-02-19T11:10:27;96168.91;;;13.72;50.28
9839;BME280;4958;48.150;11.506;2023-02-19T11:12:56;96169.38;;;13.61;50.90
9839;BME280;4958;48.150;11.506;2023-02-19T11:15:35;96162.06;;;13.50;51.39
9839;BME280;4958;48.150;11.506;2023-02-19T11:18:05;96167.59;;;13.62;51.65
9839;BME280;4958;48.150;11.506;2023-02-19T11:20:33;96162.16;;;13.57;51.45
9839;BME280;4958;48.150;11.506;2023-02-19T11:23:03;96173.22;;;13.51;51.29
9839;BME280;4958;48.150;11.506;2023-02-19T11:25:35;96171.91;;;13.40;52.16
9839;BME280;4958;48.150;11.506;2023-02-19T11:28:05;96169.75;;;13.29;51.70
9839;BME280;4958;48.150;11.506;2023-02-19T11:30:37;96164.41;;;13.45;51.51
9839;BME280;4958;48.150;11.506;2023-02-19T11:33:20;96172.41;;;13.65;51.56
9839;BME280;4958;48.150;11.506;2023-02-19T11:35:54;96166.03;;;13.46;51.40
9839;BME280;4958;48.150;11.506;2023-02-19T11:38:23;96179.03;;;13.23;51.86
9839;BME280;4958;48.150;11.506;2023-02-19T11:40:54;96183.41;;;13.23;53.32
9839;BME280;4958;48.150;11.506;2023-02-19T11:43:38;96183.00;;;13.11;54.87
9839;BME280;4958;48.150;11.506;2023-02-19T11:46:16;96186.19;;;12.84;57.64
9839;BME280;4958;48.150;11.506;2023-02-19T11:48:51;96190.91;;;12.57;60.21
9839;BME280;4958;48.150;11.506;2023-02-19T11:51:40;96198.66;;;12.34;60.59
9839;BME280;4958;48.150;11.506;2023-02-19T11:54:21;96186.34;;;12.22;58.72
9839;BME280;4958;48.150;11.506;2023-02-19T11:57:00;96189.84;;;12.29;59.14
9839;BME280;4958;48.150;11.506;2023-02-19T11:59:35;96202.34;;;12.40;57.54
9839;BME280;4958;48.150;11.506;2023-02-19T12:02:21;96198.78;;;12.41;55.42
9839;BME280;4958;48.150;11.506;2023-02-19T12:05:11;96187.63;;;12.49;55.35
9839;BME280;4958;48.150;11.506;2023-02-19T12:08:01;96193.13;;;12.45;55.17
9839;BME280;4958;48.150;11.506;2023-02-19T12:10:35;96195.53;;;12.47;54.67
9839;BME280;4958;48.150;11.506;2023-02-19T12:13:10;96187.94;;;12.45;53.81
9839;BME280;4958;48.150;11.506;2023-02-19T12:15:49;96195.34;;;12.49;53.64
9839;BME280;4958;48.150;11.506;2023-02-19T12:18:42;96189.78;;;12.60;54.00
9839;BME280;4958;48.150;11.506;2023-02-19T12:21:22;96197.81;;;12.65;52.67
9839;BME280;4958;48.150;11.506;2023-02-19T12:24:10;96191.34;;;12.84;52.66
9839;BME280;4958;48.150;11.506;2023-02-19T12:26:46;96204.13;;;13.00;52.02
9839;BME280;4958;48.150;11.506;2023-02-19T12:29:23;96203.16;;;13.01;52.42
9839;BME280;4958;48.150;11.506;2023-02-19T12:32:10;96193.44;;;13.03;52.06
9839;BME280;4958;48.150;11.506;2023-02-19T12:35:04;96209.75;;;13.03;52.60
9839;BME280;4958;48.150;11.506;2023-02-19T12:37:43;96215.06;;;12.87;52.55
9839;BME280;4958;48.150;11.506;2023-02-19T12:40:26;96221.78;;;12.73;53.97
9839;BME280;4958;48.150;11.506;2023-02-19T12:43:04;96237.06;;;12.60;54.31
9839;BME280;4958;48.150;11.506;2023-02-19T12:45:37;96241.22;;;12.47;55.41
9839;BME280;4958;48.150;11.506;2023-02-19T12:48:09;96249.91;;;12.23;56.28
9839;BME280;4958;48.150;11.506;2023-02-19T12:50:40;96240.19;;;12.02;56.46
9839;BME280;4958;48.150;11.506;2023-02-19T12:53:22;96238.78;;;11.91;56.29
9839;BME280;4958;48.150;11.506;2023-02-19T12:55:50;96244.56;;;11.93;55.87
9839;BME280;4958;48.150;11.506;2023-02-19T12:58:23;96238.63;;;11.93;55.06
9839;BME280;4958;48.150;11.506;2023-02-19T13:00:52;96238.09;;;11.97;55.66
9839;BME280;4958;48.150;11.506;2023-02-19T13:03:29;96230.75;;;11.86;55.70
9839;BME280;4958;48.150;11.506;2023-02-19T13:06:03;96236.81;;;11.93;55.26
9839;BME280;4958;48.150;11.506;2023-02-19T13:08:34;96241.38;;;11.91;54.77
9839;BME280;4958;48.150;11.506;2023-02-19T13:11:05;96239.22;;;11.95;54.53
9839;BME280;4958;48.150;11.506;2023-02-19T13:13:37;96232.19;;;11.89;54.80
9839;BME280;4958;48.150;11.506;2023-02-19T13:16:09;96232.34;;;11.87;54.04
9839;BME280;4958;48.150;11.506;2023-02-19T13:18:40;96238.25;;;11.96;54.75
9839;BME280;4958;48.150;11.506;2023-02-19T13:21:11;96242.97;;;11.92;54.62
9839;BME280;4958;48.150;11.506;2023-02-19T13:23:59;96248.94;;;11.93;55.28
9839;BME280;4958;48.150;11.506;2023-02-19T13:26:47;96256.00;;;11.99;55.59
9839;BME280;4958;48.150;11.506;2023-02-19T13:29:29;96253.09;;;11.94;55.66